sensor_id;sensor_type;location;lat;lon;timestamp;temperature;humidity
8402;DHT22;4238;48.404;9.498;2023-02-01T00:02:08;2.40;99.90
8402;DHT22;4238;48.404;9.498;2023-02-01T00:04:35;2.50;99.90
8402;DHT22;4238;48.404;9.498;2023-02-01T00:07:02;2.40;99.90
8402;DHT22;4238;48.404;9.498;2023-02-01T00:09:29;2.50;99.90
8402;DHT22;4238;48.404;9.498;2023-02-01T00:11:57;2.40;99.90
8402;DHT22;4238;48.404;9.498;2023-02-01T00:14:27;2.40;99.90
8402;DHT22;4238;48.404;9.498;2023-02-01T00:16:54;2.50;99.90
8402;DHT22;4238;48.404;9.498;2023-02-01T00:19:21;2.40;99.90
8402;DHT22;4238;48.404;9.498;2023-02-01T00:21:48;2.40;99.90
8402;DHT22;4238;48.404;9.498;2023-02-01T00:24:15;2.50;99.90
8402;DHT22;4238;48.404;9.498;2023-02-01T00:26:43;2.40;99.90
8402;DHT22;4238;48.404;9.498;2023-02-01T00:29:14;2.40;99.90
8402;DHT22;4238;48.404;9.498;2023-02-01T00:31:42;2.40;99.90
8402;DHT22;4238;48.404;9.498;2023-02-01T00:34:11;2.50;99.90
8402;DHT22;4238;48.404;9.498;2023-02-01T00:36:38;2.50;99.90
8402;DHT22;4238;48.404;9.498;2023-02-01T00:39:05;2.50;99.90
8402;DHT22;4238;48.404;9.498;2023-02-01T00:41:32;2.60;99.90
8402;DHT22;4238;48.404;9.498;2023-02-01T00:43:59;2.60;99.90
8402;DHT22;4238;48.404;9.498;2023-02-01T00:46:28;2.50;99.90
8402;DHT22;4238;48.404;9.498;2023-02-01T00:48:55;2.50;99.90
8402;DHT22;4238;48.404;9.498;2023-02-01T00:51:26;2.50;99.90
8402;DHT22;4238;48.404;9.498;2023-02-01T00:53:54;2.50;99.90
8402;DHT22;4238;48.404;9.498;2023-02-01T00:56:21;2.50;99.90
8402;DHT22;4238;48.404;9.498;2023-02-01T00:58:48;2.40;99.90
8402;DHT22;4238;48.404;9.498;2023-02-01T01:01:17;2.50;99.90
8402;DHT22;4238;48.404;9.498;2023-02-01T01:03:48;2.40;99.90
8402;DHT22;4238;48.404;9.498;2023-02-01T01:06:17;2.40;99.90
8402;DHT22;4238;48.404;9.498;2023-02-01T01:08:44;2.40;99.90
8402;DHT22;4238;48.404;9.498;2023-02-01T01:11:13;2.40;99.90
8402;DHT22;4238;48.404;9.498;2023-02-01T01:13:40;2.40;99.90
8402;DHT22;4238;48.404;9.498;2023-02-01T01:16:09;2.50;99.90
8402;DHT22;4238;48.404;9.498;2023-02-01T01:18:37;2.50;99.90
8402;DHT22;4238;48.404;9.498;2023-02-01T01:21:07;2.50;99.90
8402;DHT22;4238;48.404;9.498;2023-02-01T01:23:34;2.50;99.90
8402;DHT22;4238;48.404;9.498;2023-02-01T01:26:05;2.50;99.90
8402;DHT22;4238;48.404;9.498;2023-02-01T01:28:32;2.50;99.90
8402;DHT22;4238;48.404;9.498;2023-02-01T01:30:59;2.50;99.90
8402;DHT22;4238;48.404;9.498;2023-02-01T01:33:26;2.50;99.90
8402;DHT22;4238;48.404;9.498;2023-02-01T01:35:52;2.50;99.90
8402;DHT22;4238;48.404;9.498;2023-02-01T01:38:21;2.50;99.90
8402;DHT22;4238;48.404;9.498;2023-02-01T01:40:48;2.50;99.90
8402;DHT22;4238;48.404;9.498;2023-02-01T01:43:18;2.50;99.90
8402;DHT22;4238;48.404;9.498;2023-02-01T01:45:48;2.60;99.90
8402;DHT22;4238;48.404;9.498;2023-02-01T01:48:18;2.50;99.90
8402;DHT22;4238;48.404;9.498;2023-02-01T01:50:50;2.60;99.90
8402;DHT22;4238;48.404;9.498;2023-02-01T01:53:22;2.50;99.90
8402;DHT22;4238;48.404;9.498;2023-02-01T01:55:51;2.60;99.90
8402;DHT22;4238;48.404;9.498;2023-02-01T01:58:23;2.60;99.90
8402;DHT22;4238;48.404;9.498;2023-02-01T02:00:50;2.60;99.90
8402;DHT22;4238;48.404;9.498;2023-02-01T02:03:20;2.60;99.90
8402;DHT22;4238;48.404;9.498;2023-02-01T02:05:49;2.60;99.90
8402;DHT22;4238;48.404;9.498;2023-02-01T02:08:18;2.60;99.90
8402;DHT22;4238;48.404;9.498;2023-02-01T02:10:50;2.70;99.90
8402;DHT22;4238;48.404;9.498;2023-02-01T02:13:28;2.70;99.90
8402;DHT22;4238;48.404;9.498;2023-02-01T02:16:11;2.70;99.90
8402;DHT22;4238;48.404;9.498;2023-02-01T02:18:48;2.60;99.90
8402;DHT22;4238;48.404;9.498;2023-02-01T02:21:33;2.60;99.90
8402;DHT22;4238;48.404;9.498;2023-02-01T02:24:34;2.70;99.90
8402;DHT22;4238;48.404;9.498;2023-02-01T02:27:21;2.60;99.90
8402;DHT22;4238;48.404;9.498;2023-02-01T02:30:23;2.70;99.90
8402;DHT22;4238;48.404;9.498;2023-02-01T02:36:12;2.70;99.90
8402;DHT22;4238;48.404;9.498;2023-02-01T02:38:46;2.60;99.90
8402;DHT22;4238;48.404;9.498;2023-02-01T02:41:16;2.60;99.90
8402;DHT22;4238;48.404;9.498;2023-02-01T02:44:00;2.70;99.90
8402;DHT22;4238;48.404;9.498;2023-02-01T02:46:50;2.70;99.90
8402;DHT22;4238;48.404;9.498;2023-02-01T02:49:41;2.70;99.90
8402;DHT22;4238;48.404;9.498;2023-02-01T02:52:13;2.70;99.90
8402;DHT22;4238;48.404;9.498;2023-02-01T02:55:00;2.70;99.90
8402;DHT22;4238;48.404;9.498;2023-02-01T02:57:31;2.70;99.90
8402;DHT22;4238;48.404;9.498;2023-02-01T03:00:19;2.70;99.90
8402;DHT22;4238;48.404;9.498;2023-02-01T03:03:04;2.70;99.90
8402;DHT22;4238;48.404;9.498;2023-02-01T03:05:49;2.70;99.90
8402;DHT22;4238;48.404;9.498;2023-02-01T03:08:20;2.70;99.90
8402;DHT22;4238;48.404;9.498;2023-02-01T03:10:54;2.70;99.90
8402;DHT22;4238;48.404;9.498;2023-02-01T03:13:30;2.60;99.90
8402;DHT22;4238;48.404;9.498;2023-02-01T03:16:00;2.70;99.90
8402;DHT22;4238;48.404;9.498;2023-02-01T03:18:33;2.70;99.90
8402;DHT22;4238;48.404;9.498;2023-02-01T03:21:06;2.70;99.90
8402;DHT22;4238;48.404;9.498;2023-02-01T03:23:36;2.70;99.90
8402;DHT22;4238;48.404;9.498;2023-02-01T03:26:07;2.60;99.90
8402;DHT22;4238;48.404;9.498;2023-02-01T03:28:37;2.60;99.90
8402;DHT22;4238;48.404;9.498;2023-02-01T03:31:07;2.60;99.90
8402;DHT22;4238;48.404;9.498;2023-02-01T03:33:34;2.60;99.90
8402;DHT22;4238;48.404;9.498;2023-02-01T03:36:07;2.60;99.90
8402;DHT22;4238;48.404;9.498;2023-02-01T03:38:40;2.50;99.90
8402;DHT22;4238;48.404;9.498;2023-02-01T03:41:13;2.50;99.90
8402;DHT22;4238;48.404;9.498;2023-02-01T03:43:49;2.50;99.90
8402;DHT22;4238;48.404;9.498;2023-02-01T03:46:20;2.50;99.90
8402;DHT22;4238;48.404;9.498;2023-02-01T03:48:51;2.50;99.90
8402;DHT22;4238;48.404;9.498;2023-02-01T03:51:20;2.50;99.90
8402;DHT22;4238;48.404;9.498;2023-02-01T03:53:49;2.60;99.90
8402;DHT22;4238;48.404;9.498;2023-02-01T03:56:18;2.60;99.90
8402;DHT22;4238;48.404;9.498;2023-02-01T03:58:46;2.60;99.90
8402;DHT22;4238;48.404;9.498;2023-02-01T04:01:25;2.60;99.90
8402;DHT22;4238;48.404;9.498;2023-02-01T04:03:52;2.60;99.90
8402;DHT22;4238;48.404;9.498;2023-02-01T04:06:19;2.60;99.90
8402;DHT22;4238;48.404;9.498;2023-02-01T04:08:46;2.60;99.90
8402;DHT22;4238;48.404;9.498;2023-02-01T04:11:14;2.70;99.90
8402;DHT22;4238;48.404;9.498;2023-02-01T04:13:41;2.60;99.90
8402;DHT22;4238;48.404;9.498;2023-02-01T04:16:08;2.60;99.90
8402;DHT22;4238;48.404;9.498;2023-02-01T04:18:36;2.60;99.90
8402;DHT22;4238;48.404;9.498;2023-02-01T04:21:03;2.60;99.90
8402;DHT22;4238;48.404;9.498;2023-02-01T04:23:30;2.60;99.90
8402;DHT22;4238;48.404;9.498;2023-02-01T04:26:01;2.60;99.90
8402;DHT22;4238;48.404;9.498;2023-02-01T04:28:30;2.60;99.90
8402;DHT22;4238;48.404;9.498;2023-02-01T04:30:57;2.60;99.90
8402;DHT22;4238;48.404;9.498;2023-02-01T04:33:24;2.60;99.90
8402;DHT22;4238;48.404;9.498;2023-02-01T04:35:51;2.60;99.90
8402;DHT22;4238;48.404;9.498;2023-02-01T04:38:18;2.60;99.90
8402;DHT22;4238;48.404;9.498;2023-02-01T04:40:47;2.60;99.90
8402;DHT22;4238;48.404;9.498;2023-02-01T04:43:14;2.60;99.90
8402;DHT22;4238;48.404;9.498;2023-02-01T04:45:46;2.70;99.90
8402;DHT22;4238;48.404;9.498;2023-02-01T04:48:13;2.70;99.90
8402;DHT22;4238;48.404;9.498;2023-02-01T04:50:40;2.70;99.90
8402;DHT22;4238;48.404;9.498;2023-02-01T04:53:07;2.60;99.90
8402;DHT22;4238;48.404;9.498;2023-02-01T04:55:34;2.60;99.90
8402;DHT22;4238;48.404;9.498;2023-02-01T04:58:01;2.60;99.90
8402;DHT22;4238;48.404;9.498;2023-02-01T05:00:28;2.60;99.90
8402;DHT22;4238;48.404;9.498;2023-02-01T05:02:56;2.60;99.90
8402;DHT22;4238;48.404;9.498;2023-02-01T05:05:24;2.60;99.90
8402;DHT22;4238;48.404;9.498;2023-02-01T05:07:51;2.60;99.90
8402;DHT22;4238;48.404;9.498;2023-02-01T05:10:18;2.60;99.90
8402;DHT22;4238;48.404;9.498;2023-02-01T05:12:44;2.60;99.90
8402;DHT22;4238;48.404;9.498;2023-02-01T05:15:28;2.60;99.90
8402;DHT22;4238;48.404;9.498;2023-02-01T05:17:57;2.60;99.90
8402;DHT22;4238;48.404;9.498;2023-02-01T05:20:24;2.60;99.90
8402;DHT22;4238;48.404;9.498;2023-02-01T05:22:51;2.60;99.90
8402;DHT22;4238;48.404;9.498;2023-02-01T05:25:18;2.60;99.90
8402;DHT22;4238;48.404;9.498;2023-02-01T05:27:47;2.60;99.90
8402;DHT22;4238;48.404;9.498;2023-02-01T05:30:14;2.60;99.90
8402;DHT22;4238;48.404;9.498;2023-02-01T05:32:41;2.60;99.90
8402;DHT22;4238;48.404;9.498;2023-02-01T05:35:10;2.60;99.90
8402;DHT22;4238;48.404;9.498;2023-02-01T05:37:37;2.60;99.90
8402;DHT22;4238;48.404;9.498;2023-02-01T05:40:05;2.60;99.90
8402;DHT22;4238;48.404;9.498;2023-02-01T05:42:32;2.60;99.90
8402;DHT22;4238;48.404;9.498;2023-02-01T05:44:59;2.60;99.90
8402;DHT22;4238;48.404;9.498;2023-02-01T05:47:26;2.60;99.20
8402;DHT22;4238;48.404;9.498;2023-02-01T05:49:53;2.60;99.10
8402;DHT22;4238;48.404;9.498;2023-02-01T05:52:21;2.50;97.60
8402;DHT22;4238;48.404;9.498;2023-02-01T05:54:48;2.60;98.50
8402;DHT22;4238;48.404;9.498;2023-02-01T05:57:16;2.60;97.80
8402;DHT22;4238;48.404;9.498;2023-02-01T05:59:43;2.60;98.30
8402;DHT22;4238;48.404;9.498;2023-02-01T06:02:11;2.60;97.10
8402;DHT22;4238;48.404;9.498;2023-02-01T06:04:38;2.60;96.40
8402;DHT22;4238;48.404;9.498;2023-02-01T06:07:05;2.60;97.60
8402;DHT22;4238;48.404;9.498;2023-02-01T06:09:37;2.60;97.30
8402;DHT22;4238;48.404;9.498;2023-02-01T06:12:04;2.60;93.50
8402;DHT22;4238;48.404;9.498;2023-02-01T06:14:31;2.60;91.70
8402;DHT22;4238;48.404;9.498;2023-02-01T06:16:58;2.70;91.30
8402;DHT22;4238;48.404;9.498;2023-02-01T06:19:25;2.70;85.90
8402;DHT22;4238;48.404;9.498;2023-02-01T06:21:52;2.70;85.00
8402;DHT22;4238;48.404;9.498;2023-02-01T06:24:19;2.70;87.60
8402;DHT22;4238;48.404;9.498;2023-02-01T06:26:48;2.70;85.00
8402;DHT22;4238;48.404;9.498;2023-02-01T06:29:15;2.70;87.00
8402;DHT22;4238;48.404;9.498;2023-02-01T06:31:42;2.70;88.10
8402;DHT22;4238;48.404;9.498;2023-02-01T06:34:09;2.70;89.00
8402;DHT22;4238;48.404;9.498;2023-02-01T06:36:36;2.70;86.50
8402;DHT22;4238;48.404;9.498;2023-02-01T06:39:03;2.70;85.10
8402;DHT22;4238;48.404;9.498;2023-02-01T06:41:30;2.70;86.00
8402;DHT22;4238;48.404;9.498;2023-02-01T06:43:58;2.70;89.00
8402;DHT22;4238;48.404;9.498;2023-02-01T06:46:25;2.70;84.10
8402;DHT22;4238;48.404;9.498;2023-02-01T06:48:52;2.70;85.60
8402;DHT22;4238;48.404;9.498;2023-02-01T06:51:21;2.80;83.20
8402;DHT22;4238;48.404;9.498;2023-02-01T06:53:49;2.80;85.60
8402;DHT22;4238;48.404;9.498;2023-02-01T06:56:16;2.80;89.00
8402;DHT22;4238;48.404;9.498;2023-02-01T06:58:43;2.70;87.80
8402;DHT22;4238;48.404;9.498;2023-02-01T07:01:12;2.80;89.80
8402;DHT22;4238;48.404;9.498;2023-02-01T07:03:40;2.70;92.70
8402;DHT22;4238;48.404;9.498;2023-02-01T07:06:07;2.80;96.90
8402;DHT22;4238;48.404;9.498;2023-02-01T07:08:37;2.70;99.90
8402;DHT22;4238;48.404;9.498;2023-02-01T07:11:05;2.60;99.90
8402;DHT22;4238;48.404;9.498;2023-02-01T07:13:33;2.60;99.90
8402;DHT22;4238;48.404;9.498;2023-02-01T07:16:00;2.60;99.90
8402;DHT22;4238;48.404;9.498;2023-02-01T07:18:29;2.60;99.90
8402;DHT22;4238;48.404;9.498;2023-02-01T07:20:57;2.60;99.90
8402;DHT22;4238;48.404;9.498;2023-02-01T07:23:24;2.60;99.90
8402;DHT22;4238;48.404;9.498;2023-02-01T07:25:53;2.60;99.90
8402;DHT22;4238;48.404;9.498;2023-02-01T07:28:20;2.60;99.90
8402;DHT22;4238;48.404;9.498;2023-02-01T07:30:48;2.60;99.90
8402;DHT22;4238;48.404;9.498;2023-02-01T07:33:18;2.60;99.90
8402;DHT22;4238;48.404;9.498;2023-02-01T07:35:47;2.60;99.90
8402;DHT22;4238;48.404;9.498;2023-02-01T07:38:14;2.60;99.90
8402;DHT22;4238;48.404;9.498;2023-02-01T07:40:42;2.60;99.90
8402;DHT22;4238;48.404;9.498;2023-02-01T07:43:09;2.70;99.90
8402;DHT22;4238;48.404;9.498;2023-02-01T07:45:36;2.70;99.90
8402;DHT22;4238;48.404;9.498;2023-02-01T07:48:04;2.70;99.90
8402;DHT22;4238;48.404;9.498;2023-02-01T07:50:31;2.80;99.90
8402;DHT22;4238;48.404;9.498;2023-02-01T07:53:00;2.80;98.50
8402;DHT22;4238;48.404;9.498;2023-02-01T07:55:27;2.80;96.80
8402;DHT22;4238;48.404;9.498;2023-02-01T07:57:57;2.70;96.50
8402;DHT22;4238;48.404;9.498;2023-02-01T08:00:25;2.70;99.90
8402;DHT22;4238;48.404;9.498;2023-02-01T08:03:09;2.70;99.90
8402;DHT22;4238;48.404;9.498;2023-02-01T08:05:36;2.70;99.90
8402;DHT22;4238;48.404;9.498;2023-02-01T08:08:05;2.70;98.50
8402;DHT22;4238;48.404;9.498;2023-02-01T08:10:32;2.70;99.20
8402;DHT22;4238;48.404;9.498;2023-02-01T08:13:00;2.70;97.00
8402;DHT22;4238;48.404;9.498;2023-02-01T08:15:29;2.70;94.00
8402;DHT22;4238;48.404;9.498;2023-02-01T08:17:56;2.80;93.60
8402;DHT22;4238;48.404;9.498;2023-02-01T08:20:24;2.80;92.80
8402;DHT22;4238;48.404;9.498;2023-02-01T08:22:52;2.80;93.80
8402;DHT22;4238;48.404;9.498;2023-02-01T08:25:20;2.80;91.30
8402;DHT22;4238;48.404;9.498;2023-02-01T08:27:47;2.90;87.30
8402;DHT22;4238;48.404;9.498;2023-02-01T08:30:14;2.90;89.50
8402;DHT22;4238;48.404;9.498;2023-02-01T08:32:41;3.00;86.40
8402;DHT22;4238;48.404;9.498;2023-02-01T08:35:09;3.00;78.30
8402;DHT22;4238;48.404;9.498;2023-02-01T08:37:36;3.00;73.90
8402;DHT22;4238;48.404;9.498;2023-02-01T08:40:04;3.10;71.10
8402;DHT22;4238;48.404;9.498;2023-02-01T08:42:32;3.10;71.40
8402;DHT22;4238;48.404;9.498;2023-02-01T08:45:18;3.10;61.00
8402;DHT22;4238;48.404;9.498;2023-02-01T08:47:46;3.10;64.50
8402;DHT22;4238;48.404;9.498;2023-02-01T08:50:13;3.10;55.20
8402;DHT22;4238;48.404;9.498;2023-02-01T08:52:40;3.20;54.00
8402;DHT22;4238;48.404;9.498;2023-02-01T08:55:08;3.10;52.20
8402;DHT22;4238;48.404;9.498;2023-02-01T08:57:36;3.20;49.70
8402;DHT22;4238;48.404;9.498;2023-02-01T09:00:06;3.30;52.60
8402;DHT22;4238;48.404;9.498;2023-02-01T09:02:33;3.30;52.10
8402;DHT22;4238;48.404;9.498;2023-02-01T09:05:00;3.30;53.30
8402;DHT22;4238;48.404;9.498;2023-02-01T09:07:27;3.30;47.40
8402;DHT22;4238;48.404;9.498;2023-02-01T09:09:54;3.40;44.00
8402;DHT22;4238;48.404;9.498;2023-02-01T09:12:22;3.40;37.10
8402;DHT22;4238;48.404;9.498;2023-02-01T09:14:51;3.40;38.30
8402;DHT22;4238;48.404;9.498;2023-02-01T09:17:17;3.50;34.10
8402;DHT22;4238;48.404;9.498;2023-02-01T09:19:44;3.40;32.10
8402;DHT22;4238;48.404;9.498;2023-02-01T09:22:11;3.50;34.80
8402;DHT22;4238;48.404;9.498;2023-02-01T09:24:38;3.50;32.70
8402;DHT22;4238;48.404;9.498;2023-02-01T09:27:05;3.50;31.00
8402;DHT22;4238;48.404;9.498;2023-02-01T09:29:33;3.60;26.00
8402;DHT22;4238;48.404;9.498;2023-02-01T09:32:01;3.50;22.50
8402;DHT22;4238;48.404;9.498;2023-02-01T09:34:28;3.50;21.60
8402;DHT22;4238;48.404;9.498;2023-02-01T09:37:04;3.40;28.00
8402;DHT22;4238;48.404;9.498;2023-02-01T09:39:32;3.30;27.70
8402;DHT22;4238;48.404;9.498;2023-02-01T09:42:07;3.30;31.80
8402;DHT22;4238;48.404;9.498;2023-02-01T09:44:49;3.30;36.40
8402;DHT22;4238;48.404;9.498;2023-02-01T09:47:23;3.30;33.90
8402;DHT22;4238;48.404;9.498;2023-02-01T09:49:56;3.30;32.80
8402;DHT22;4238;48.404;9.498;2023-02-01T09:52:29;3.20;26.60
8402;DHT22;4238;48.404;9.498;2023-02-01T09:55:01;3.20;24.60
8402;DHT22;4238;48.404;9.498;2023-02-01T09:57:40;3.20;27.60
8402;DHT22;4238;48.404;9.498;2023-02-01T10:00:14;3.20;30.30
8402;DHT22;4238;48.404;9.498;2023-02-01T10:02:43;3.20;27.10
8402;DHT22;4238;48.404;9.498;2023-02-01T10:05:14;3.30;27.00
8402;DHT22;4238;48.404;9.498;2023-02-01T10:07:50;3.40;26.20
8402;DHT22;4238;48.404;9.498;2023-02-01T10:10:28;3.40;19.20
8402;DHT22;4238;48.404;9.498;2023-02-01T10:13:27;3.50;12.00
8402;DHT22;4238;48.404;9.498;2023-02-01T10:16:13;3.60;7.90
8402;DHT22;4238;48.404;9.498;2023-02-01T10:18:57;3.60;9.00
8402;DHT22;4238;48.404;9.498;2023-02-01T10:21:38;3.70;1.00
8402;DHT22;4238;48.404;9.498;2023-02-01T10:24:20;3.90;1.00
8402;DHT22;4238;48.404;9.498;2023-02-01T10:26:53;4.50;1.00
8402;DHT22;4238;48.404;9.498;2023-02-01T10:29:26;5.00;1.00
8402;DHT22;4238;48.404;9.498;2023-02-01T10:31:59;5.10;1.00
8402;DHT22;4238;48.404;9.498;2023-02-01T10:34:31;5.50;99.90
8402;DHT22;4238;48.404;9.498;2023-02-01T10:37:01;5.90;99.90
8402;DHT22;4238;48.404;9.498;2023-02-01T10:39:28;6.00;99.90
8402;DHT22;4238;48.404;9.498;2023-02-01T10:41:56;5.70;99.90
8402;DHT22;4238;48.404;9.498;2023-02-01T10:44:26;5.30;1.00
8402;DHT22;4238;48.404;9.498;2023-02-01T10:46:54;5.20;99.90
8402;DHT22;4238;48.404;9.498;2023-02-01T10:49:26;5.10;99.90
8402;DHT22;4238;48.404;9.498;2023-02-01T10:52:00;5.00;99.90
8402;DHT22;4238;48.404;9.498;2023-02-01T10:54:34;5.00;99.90
8402;DHT22;4238;48.404;9.498;2023-02-01T10:57:07;4.90;1.00
8402;DHT22;4238;48.404;9.498;2023-02-01T10:59:34;4.70;99.90
8402;DHT22;4238;48.404;9.498;2023-02-01T11:02:13;4.70;1.00
8402;DHT22;4238;48.404;9.498;2023-02-01T11:04:42;4.90;1.00
8402;DHT22;4238;48.404;9.498;2023-02-01T11:07:17;4.80;99.90
8402;DHT22;4238;48.404;9.498;2023-02-01T11:09:50;4.80;99.90
8402;DHT22;4238;48.404;9.498;2023-02-01T11:12:27;4.60;99.90
8402;DHT22;4238;48.404;9.498;2023-02-01T11:15:03;4.60;1.00
8402;DHT22;4238;48.404;9.498;2023-02-01T11:17:34;4.70;1.00
8402;DHT22;4238;48.404;9.498;2023-02-01T11:20:05;4.70;99.90
8402;DHT22;4238;48.404;9.498;2023-02-01T11:22:34;4.80;99.90
8402;DHT22;4238;48.404;9.498;2023-02-01T11:25:08;4.90;1.00
8402;DHT22;4238;48.404;9.498;2023-02-01T11:27:37;5.10;99.90
8402;DHT22;4238;48.404;9.498;2023-02-01T11:30:06;5.20;1.00
8402;DHT22;4238;48.404;9.498;2023-02-01T11:32:33;5.60;1.00
8402;DHT22;4238;48.404;9.498;2023-02-01T11:35:02;5.60;99.90
8402;DHT22;4238;48.404;9.498;2023-02-01T11:37:32;5.80;99.90
8402;DHT22;4238;48.404;9.498;2023-02-01T11:40:22;6.40;99.90
8402;DHT22;4238;48.404;9.498;2023-02-01T11:42:57;6.40;1.00
8402;DHT22;4238;48.404;9.498;2023-02-01T11:45:26;6.40;1.00
8402;DHT22;4238;48.404;9.498;2023-02-01T11:47:55;6.20;1.00
8402;DHT22;4238;48.404;9.498;2023-02-01T11:50:30;6.30;1.00
8402;DHT22;4238;48.404;9.498;2023-02-01T11:53:20;6.10;1.00
8402;DHT22;4238;48.404;9.498;2023-02-01T11:56:08;5.80;99.90
8402;DHT22;4238;48.404;9.498;2023-02-01T12:01:44;5.10;99.90
8402;DHT22;4238;48.404;9.498;2023-02-01T12:04:45;4.80;99.90
8402;DHT22;4238;48.404;9.498;2023-02-01T12:07:20;4.60;99.90
8402;DHT22;4238;48.404;9.498;2023-02-01T12:09:59;4.50;1.00
8402;DHT22;4238;48.404;9.498;2023-02-01T12:12:36;4.30;1.00
8402;DHT22;4238;48.404;9.498;2023-02-01T12:15:32;4.20;1.00
8402;DHT22;4238;48.404;9.498;2023-02-01T12:18:35;4.10;1.00
8402;DHT22;4238;48.404;9.498;2023-02-01T12:21:23;3.90;1.00
8402;DHT22;4238;48.404;9.498;2023-02-01T12:24:01;3.90;1.00
8402;DHT22;4238;48.404;9.498;2023-02-01T12:26:42;3.80;1.00
8402;DHT22;4238;48.404;9.498;2023-02-01T12:29:22;3.90;1.00
8402;DHT22;4238;48.404;9.498;2023-02-01T12:32:09;3.90;1.00
8402;DHT22;4238;48.404;9.498;2023-02-01T12:34:57;3.90;1.00
8402;DHT22;4238;48.404;9.498;2023-02-01T12:37:38;3.90;1.00
8402;DHT22;4238;48.404;9.498;2023-02-01T12:40:20;4.00;1.00
8402;DHT22;4238;48.404;9.498;2023-02-01T12:42:56;3.90;1.00
8402;DHT22;4238;48.404;9.498;2023-02-01T12:45:31;3.90;1.00
8402;DHT22;4238;48.404;9.498;2023-02-01T12:48:03;3.80;1.00
8402;DHT22;4238;48.404;9.498;2023-02-01T12:50:36;3.80;1.00
8402;DHT22;4238;48.404;9.498;2023-02-01T12:53:09;3.80;1.00
8402;DHT22;4238;48.404;9.498;2023-02-01T12:55:44;3.70;1.00
8402;DHT22;4238;48.404;9.498;2023-02-01T12:58:18;3.70;1.00
8402;DHT22;4238;48.404;9.498;2023-02-01T13:00:51;3.70;1.00
8402;DHT22;4238;48.404;9.498;2023-02-01T13:03:29;3.70;1.00
8402;DHT22;4238;48.404;9.498;2023-02-01T13:06:04;3.60;1.00
8402;DHT22;4238;48.404;9.498;2023-02-01T13:08:38;3.60;1.00
8402;DHT22;4238;48.404;9.498;2023-02-01T13:11:11;3.50;1.00
8402;DHT22;4238;48.404;9.498;2023-02-01T13:13:47;3.50;1.00
8402;DHT22;4238;48.404;9.498;2023-02-01T13:16:20;3.60;1.00
8402;DHT22;4238;48.404;9.498;2023-02-01T13:18:55;3.50;1.00
8402;DHT22;4238;48.404;9.498;2023-02-01T13:21:26;3.50;1.00
8402;DHT22;4238;48.404;9.498;2023-02-01T13:23:54;3.50;1.00
8402;DHT22;4238;48.404;9.498;2023-02-01T13:26:21;3.50;1.00
8402;DHT22;4238;48.404;9.498;2023-02-01T13:28:50;3.40;1.00
8402;DHT22;4238;48.404;9.498;2023-02-01T13:31:37;3.30;1.00
8402;DHT22;4238;48.404;9.498;2023-02-01T13:34:47;3.40;1.00
8402;DHT22;4238;48.404;9.498;2023-02-01T13:37:35;3.40;1.00
8402;DHT22;4238;48.404;9.498;2023-02-01T13:40:25;3.40;1.00
8402;DHT22;4238;48.404;9.498;2023-02-01T13:42:58;3.30;1.00
8402;DHT22;4238;48.404;9.498;2023-02-01T13:45:28;3.30;1.00
8402;DHT22;4238;48.404;9.498;2023-02-01T13:47:59;3.20;1.00
8402;DHT22;4238;48.404;9.498;2023-02-01T13:50:29;3.30;1.00
8402;DHT22;4238;48.404;9.498;2023-02-01T13:53:00;3.20;1.00
8402;DHT22;4238;48.404;9.498;2023-02-01T13:55:33;3.20;1.00
8402;DHT22;4238;48.404;9.498;2023-02-01T13:58:11;3.20;1.00
8402;DHT22;4238;48.404;9.498;2023-02-01T14:00:40;3.20;1.00
8402;DHT22;4238;48.404;9.498;2023-02-01T14:03:16;3.20;1.00
8402;DHT22;4238;48.404;9.498;2023-02-01T14:06:14;3.10;1.00
8402;DHT22;4238;48.404;9.498;2023-02-01T14:08:45;3.10;1.00
8402;DHT22;4238;48.404;9.498;2023-02-01T14:11:42;3.10;1.00
8402;DHT22;4238;48.404;9.498;2023-02-01T14:14:48;3.10;1.00
8402;DHT22;4238;48.404;9.498;2023-02-01T14:17:36;3.10;1.00
8402;DHT22;4238;48.404;9.498;2023-02-01T14:20:40;3.20;1.00
8402;DHT22;4238;48.404;9.498;2023-02-01T14:23:13;3.30;1.00
8402;DHT22;4238;48.404;9.498;2023-02-01T14:25:41;3.30;1.00
8402;DHT22;4238;48.404;9.498;2023-02-01T14:28:19;3.20;1.00
8402;DHT22;4238;48.404;9.498;2023-02-01T14:30:49;3.20;1.00
8402;DHT22;4238;48.404;9.498;2023-02-01T14:33:21;3.20;1.00
8402;DHT22;4238;48.404;9.498;2023-02-01T14:36:05;3.10;6.10
8402;DHT22;4238;48.404;9.498;2023-02-01T14:38:35;3.10;6.20
8402;DHT22;4238;48.404;9.498;2023-02-01T14:41:23;3.10;14.70
8402;DHT22;4238;48.404;9.498;2023-02-01T14:49:54;3.10;6.10
8402;DHT22;4238;48.404;9.498;2023-02-01T14:52:30;3.10;8.70
8402;DHT22;4238;48.404;9.498;2023-02-01T14:55:04;3.10;8.00
8402;DHT22;4238;48.404;9.498;2023-02-01T14:57:34;3.10;10.10
8402;DHT22;4238;48.404;9.498;2023-02-01T15:00:14;3.10;1.00
8402;DHT22;4238;48.404;9.498;2023-02-01T15:02:43;3.10;1.20
8402;DHT22;4238;48.404;9.498;2023-02-01T15:05:24;3.20;1.00
8402;DHT22;4238;48.404;9.498;2023-02-01T15:07:53;3.10;4.30
8402;DHT22;4238;48.404;9.498;2023-02-01T15:10:21;3.10;1.00
8402;DHT22;4238;48.404;9.498;2023-02-01T15:12:49;3.10;5.60
8402;DHT22;4238;48.404;9.498;2023-02-01T15:15:17;3.10;6.70
8402;DHT22;4238;48.404;9.498;2023-02-01T15:17:50;3.10;5.80
8402;DHT22;4238;48.404;9.498;2023-02-01T15:20:20;3.10;4.00
8402;DHT22;4238;48.404;9.498;2023-02-01T15:22:57;3.10;1.00
8402;DHT22;4238;48.404;9.498;2023-02-01T15:25:27;3.10;4.90
8402;DHT22;4238;48.404;9.498;2023-02-01T15:27:55;3.10;5.20
8402;DHT22;4238;48.404;9.498;2023-02-01T15:30:23;3.00;6.50
8402;DHT22;4238;48.404;9.498;2023-02-01T15:32:51;3.10;8.50
8402;DHT22;4238;48.404;9.498;2023-02-01T15:35:38;3.10;8.60
8402;DHT22;4238;48.404;9.498;2023-02-01T15:38:43;3.10;1.40
8402;DHT22;4238;48.404;9.498;2023-02-01T15:41:13;3.10;3.10
8402;DHT22;4238;48.404;9.498;2023-02-01T15:43:42;3.10;1.00
8402;DHT22;4238;48.404;9.498;2023-02-01T15:46:12;3.10;1.60
8402;DHT22;4238;48.404;9.498;2023-02-01T15:48:44;3.10;4.80
8402;DHT22;4238;48.404;9.498;2023-02-01T15:51:14;3.10;11.40
8402;DHT22;4238;48.404;9.498;2023-02-01T15:53:52;3.20;5.60
8402;DHT22;4238;48.404;9.498;2023-02-01T15:56:25;3.10;1.60
8402;DHT22;4238;48.404;9.498;2023-02-01T15:58:55;3.10;5.70
8402;DHT22;4238;48.404;9.498;2023-02-01T16:01:23;3.10;2.50
8402;DHT22;4238;48.404;9.498;2023-02-01T16:04:03;3.10;4.20
8402;DHT22;4238;48.404;9.498;2023-02-01T16:06:31;3.00;10.30
8402;DHT22;4238;48.404;9.498;2023-02-01T16:09:09;3.00;11.20
8402;DHT22;4238;48.404;9.498;2023-02-01T16:11:41;3.00;8.90
8402;DHT22;4238;48.404;9.498;2023-02-01T16:14:12;3.00;10.70
8402;DHT22;4238;48.404;9.498;2023-02-01T16:16:41;3.00;14.60
8402;DHT22;4238;48.404;9.498;2023-02-01T16:19:08;3.00;11.30
8402;DHT22;4238;48.404;9.498;2023-02-01T16:21:38;3.00;10.60
8402;DHT22;4238;48.404;9.498;2023-02-01T16:24:06;3.00;9.60
8402;DHT22;4238;48.404;9.498;2023-02-01T16:26:34;3.00;11.30
8402;DHT22;4238;48.404;9.498;2023-02-01T16:29:01;3.00;18.00
8402;DHT22;4238;48.404;9.498;2023-02-01T16:31:33;3.00;16.60
8402;DHT22;4238;48.404;9.498;2023-02-01T16:34:01;3.00;11.40
8402;DHT22;4238;48.404;9.498;2023-02-01T16:36:28;3.00;4.60
8402;DHT22;4238;48.404;9.498;2023-02-01T16:38:55;3.00;7.60
8402;DHT22;4238;48.404;9.498;2023-02-01T16:41:24;3.10;7.20
8402;DHT22;4238;48.404;9.498;2023-02-01T16:43:54;3.00;7.80
8402;DHT22;4238;48.404;9.498;2023-02-01T16:46:24;3.00;8.10
8402;DHT22;4238;48.404;9.498;2023-02-01T16:48:53;3.00;4.10
8402;DHT22;4238;48.404;9.498;2023-02-01T16:51:21;3.00;4.00
8402;DHT22;4238;48.404;9.498;2023-02-01T16:53:49;2.90;7.00
8402;DHT22;4238;48.404;9.498;2023-02-01T16:56:17;2.90;10.90
8402;DHT22;4238;48.404;9.498;2023-02-01T16:58:47;2.90;17.70
8402;DHT22;4238;48.404;9.498;2023-02-01T17:01:15;2.90;17.50
8402;DHT22;4238;48.404;9.498;2023-02-01T17:03:42;2.90;14.10
8402;DHT22;4238;48.404;9.498;2023-02-01T17:06:12;2.90;17.90